Terminal Aerodrome Forecast
Issued by NWS

Home | Current Version | Previous Version | Text Only | Print | Product List | Glossary On
Versions: 1 2 3 4 5 6 7 8 9 10 11 12 13 14 15 16
000
FTUS42 KTAE 051721
TAFVLD
TAF
KVLD 051721Z 0518/0618 28005KT P6SM VCTS SCT050CB
      TEMPO 0518/0521 VRB15G30KT 2SM TSRA SCT020 BKN035CB
     FM052100 20004KT 5SM -RA BR BKN120
     FM060000 00000KT P6SM BKN120=

USA.gov is the U.S. government's official web portal to all federal, state and local government web resources and services.